sensor_id;sensor_type;location;lat;lon;timestamp;P1;durP1;ratioP1;P2;durP2;ratioP2
75429;SDS011;64127;51.488;5.462;2023-06-22T00:01:47;4.63;;;4.20;;
75429;SDS011;64127;51.488;5.462;2023-06-22T00:04:19;4.33;;;3.93;;
75429;SDS011;64127;51.488;5.462;2023-06-22T00:06:51;5.20;;;4.60;;
75429;SDS011;64127;51.488;5.462;2023-06-22T00:09:23;5.80;;;5.20;;
75429;SDS011;64127;51.488;5.462;2023-06-22T00:11:55;6.10;;;5.07;;
75429;SDS011;64127;51.488;5.462;2023-06-22T00:14:27;5.93;;;5.33;;
75429;SDS011;64127;51.488;5.462;2023-06-22T00:16:59;5.83;;;5.33;;
75429;SDS011;64127;51.488;5.462;2023-06-22T00:19:31;6.13;;;5.60;;
75429;SDS011;64127;51.488;5.462;2023-06-22T00:22:06;6.13;;;5.63;;
75429;SDS011;64127;51.488;5.462;2023-06-22T00:24:38;5.17;;;4.77;;
75429;SDS011;64127;51.488;5.462;2023-06-22T00:27:10;5.87;;;5.37;;
75429;SDS011;64127;51.488;5.462;2023-06-22T00:29:42;6.13;;;5.63;;
75429;SDS011;64127;51.488;5.462;2023-06-22T00:32:14;5.57;;;5.07;;
75429;SDS011;64127;51.488;5.462;2023-06-22T00:34:48;5.80;;;5.30;;
75429;SDS011;64127;51.488;5.462;2023-06-22T00:37:21;6.03;;;5.60;;
75429;SDS011;64127;51.488;5.462;2023-06-22T00:39:56;6.23;;;5.70;;
75429;SDS011;64127;51.488;5.462;2023-06-22T00:42:28;6.37;;;5.87;;
75429;SDS011;64127;51.488;5.462;2023-06-22T00:45:00;6.13;;;5.60;;
75429;SDS011;64127;51.488;5.462;2023-06-22T00:47:36;6.63;;;5.87;;
75429;SDS011;64127;51.488;5.462;2023-06-22T00:50:09;6.20;;;5.70;;
75429;SDS011;64127;51.488;5.462;2023-06-22T00:52:57;6.10;;;5.60;;
75429;SDS011;64127;51.488;5.462;2023-06-22T00:55:38;6.07;;;5.57;;
75429;SDS011;64127;51.488;5.462;2023-06-22T00:58:18;6.77;;;6.17;;
75429;SDS011;64127;51.488;5.462;2023-06-22T01:00:53;6.47;;;5.97;;
75429;SDS011;64127;51.488;5.462;2023-06-22T01:03:26;6.83;;;6.00;;
75429;SDS011;64127;51.488;5.462;2023-06-22T01:05:59;6.10;;;5.63;;
75429;SDS011;64127;51.488;5.462;2023-06-22T01:08:46;7.10;;;6.47;;
75429;SDS011;64127;51.488;5.462;2023-06-22T01:11:37;6.50;;;5.90;;
75429;SDS011;64127;51.488;5.462;2023-06-22T01:14:24;6.53;;;6.00;;
75429;SDS011;64127;51.488;5.462;2023-06-22T01:17:09;7.40;;;6.13;;
75429;SDS011;64127;51.488;5.462;2023-06-22T01:19:45;7.23;;;6.53;;
75429;SDS011;64127;51.488;5.462;2023-06-22T01:22:30;7.77;;;6.37;;
75429;SDS011;64127;51.488;5.462;2023-06-22T01:31:34;6.97;;;6.37;;
75429;SDS011;64127;51.488;5.462;2023-06-22T01:34:07;7.30;;;6.40;;
75429;SDS011;64127;51.488;5.462;2023-06-22T01:36:41;7.60;;;6.90;;
75429;SDS011;64127;51.488;5.462;2023-06-22T01:39:14;7.50;;;6.80;;
75429;SDS011;64127;51.488;5.462;2023-06-22T01:41:48;7.97;;;7.27;;
75429;SDS011;64127;51.488;5.462;2023-06-22T01:44:21;8.47;;;7.77;;
75429;SDS011;64127;51.488;5.462;2023-06-22T01:46:55;9.57;;;8.67;;
75429;SDS011;64127;51.488;5.462;2023-06-22T01:49:27;9.80;;;8.90;;
75429;SDS011;64127;51.488;5.462;2023-06-22T01:52:00;9.30;;;8.50;;
75429;SDS011;64127;51.488;5.462;2023-06-22T01:54:33;9.20;;;8.30;;
75429;SDS011;64127;51.488;5.462;2023-06-22T01:57:05;9.10;;;8.23;;
75429;SDS011;64127;51.488;5.462;2023-06-22T02:02:37;9.20;;;8.40;;
75429;SDS011;64127;51.488;5.462;2023-06-22T02:05:20;10.00;;;8.93;;
75429;SDS011;64127;51.488;5.462;2023-06-22T02:08:02;9.47;;;8.63;;
75429;SDS011;64127;51.488;5.462;2023-06-22T02:10:37;9.23;;;8.33;;
75429;SDS011;64127;51.488;5.462;2023-06-22T02:13:14;11.23;;;8.93;;
75429;SDS011;64127;51.488;5.462;2023-06-22T02:15:48;9.93;;;9.13;;
75429;SDS011;64127;51.488;5.462;2023-06-22T02:18:20;9.67;;;8.83;;
75429;SDS011;64127;51.488;5.462;2023-06-22T02:20:52;9.40;;;8.50;;
75429;SDS011;64127;51.488;5.462;2023-06-22T02:23:24;9.10;;;8.40;;
75429;SDS011;64127;51.488;5.462;2023-06-22T02:25:56;9.80;;;8.80;;
75429;SDS011;64127;51.488;5.462;2023-06-22T02:28:28;9.30;;;8.50;;
75429;SDS011;64127;51.488;5.462;2023-06-22T02:31:00;9.77;;;8.90;;
75429;SDS011;64127;51.488;5.462;2023-06-22T02:33:32;9.73;;;8.93;;
75429;SDS011;64127;51.488;5.462;2023-06-22T02:36:04;9.57;;;8.77;;
75429;SDS011;64127;51.488;5.462;2023-06-22T02:38:40;9.33;;;8.43;;
75429;SDS011;64127;51.488;5.462;2023-06-22T02:41:19;10.67;;;9.57;;
75429;SDS011;64127;51.488;5.462;2023-06-22T02:43:51;10.47;;;9.47;;
75429;SDS011;64127;51.488;5.462;2023-06-22T02:46:23;10.40;;;9.60;;
75429;SDS011;64127;51.488;5.462;2023-06-22T02:48:55;10.13;;;9.13;;
75429;SDS011;64127;51.488;5.462;2023-06-22T02:51:27;10.57;;;9.67;;
75429;SDS011;64127;51.488;5.462;2023-06-22T02:53:59;10.90;;;9.80;;
75429;SDS011;64127;51.488;5.462;2023-06-22T02:56:32;9.80;;;9.00;;
75429;SDS011;64127;51.488;5.462;2023-06-22T02:59:04;10.67;;;9.80;;
75429;SDS011;64127;51.488;5.462;2023-06-22T03:01:36;11.00;;;9.90;;
75429;SDS011;64127;51.488;5.462;2023-06-22T03:04:12;10.37;;;9.47;;
75429;SDS011;64127;51.488;5.462;2023-06-22T03:06:45;10.43;;;9.53;;
75429;SDS011;64127;51.488;5.462;2023-06-22T03:09:22;11.13;;;10.07;;
75429;SDS011;64127;51.488;5.462;2023-06-22T03:11:54;10.83;;;9.83;;
75429;SDS011;64127;51.488;5.462;2023-06-22T03:14:26;10.70;;;9.80;;
75429;SDS011;64127;51.488;5.462;2023-06-22T03:16:58;11.40;;;10.40;;
75429;SDS011;64127;51.488;5.462;2023-06-22T03:19:34;11.40;;;10.40;;
75429;SDS011;64127;51.488;5.462;2023-06-22T03:22:06;10.80;;;9.70;;
75429;SDS011;64127;51.488;5.462;2023-06-22T03:24:38;13.53;;;10.63;;
75429;SDS011;64127;51.488;5.462;2023-06-22T03:27:10;11.13;;;10.17;;
75429;SDS011;64127;51.488;5.462;2023-06-22T03:29:42;12.73;;;11.25;;
75429;SDS011;64127;51.488;5.462;2023-06-22T03:32:15;11.67;;;10.67;;
75429;SDS011;64127;51.488;5.462;2023-06-22T03:34:47;11.37;;;10.37;;
75429;SDS011;64127;51.488;5.462;2023-06-22T03:37:20;11.90;;;10.90;;
75429;SDS011;64127;51.488;5.462;2023-06-22T03:39:52;11.40;;;10.23;;
75429;SDS011;64127;51.488;5.462;2023-06-22T03:42:25;11.30;;;10.27;;
75429;SDS011;64127;51.488;5.462;2023-06-22T03:44:57;11.43;;;10.30;;
75429;SDS011;64127;51.488;5.462;2023-06-22T03:47:29;11.83;;;10.73;;
75429;SDS011;64127;51.488;5.462;2023-06-22T03:50:01;11.93;;;10.83;;
75429;SDS011;64127;51.488;5.462;2023-06-22T03:52:35;11.10;;;10.17;;
75429;SDS011;64127;51.488;5.462;2023-06-22T03:55:07;12.33;;;11.03;;
75429;SDS011;64127;51.488;5.462;2023-06-22T03:57:39;12.03;;;10.90;;
75429;SDS011;64127;51.488;5.462;2023-06-22T04:00:11;17.60;;;12.13;;
75429;SDS011;64127;51.488;5.462;2023-06-22T04:02:45;12.73;;;11.43;;
75429;SDS011;64127;51.488;5.462;2023-06-22T04:05:17;12.57;;;11.43;;
75429;SDS011;64127;51.488;5.462;2023-06-22T04:07:50;11.90;;;10.83;;
75429;SDS011;64127;51.488;5.462;2023-06-22T04:10:22;12.60;;;11.40;;
75429;SDS011;64127;51.488;5.462;2023-06-22T04:12:54;12.00;;;10.97;;
75429;SDS011;64127;51.488;5.462;2023-06-22T04:15:26;13.30;;;12.03;;
75429;SDS011;64127;51.488;5.462;2023-06-22T04:17:58;12.13;;;11.03;;
75429;SDS011;64127;51.488;5.462;2023-06-22T04:20:31;12.57;;;11.47;;
75429;SDS011;64127;51.488;5.462;2023-06-22T04:23:04;12.27;;;11.13;;
75429;SDS011;64127;51.488;5.462;2023-06-22T04:25:36;11.47;;;10.47;;
75429;SDS011;64127;51.488;5.462;2023-06-22T04:28:08;12.10;;;11.00;;
75429;SDS011;64127;51.488;5.462;2023-06-22T04:30:43;11.53;;;10.53;;
75429;SDS011;64127;51.488;5.462;2023-06-22T04:33:18;11.47;;;10.40;;
75429;SDS011;64127;51.488;5.462;2023-06-22T04:35:50;11.80;;;10.70;;
75429;SDS011;64127;51.488;5.462;2023-06-22T04:38:22;12.13;;;11.03;;
75429;SDS011;64127;51.488;5.462;2023-06-22T04:40:56;10.57;;;9.63;;
75429;SDS011;64127;51.488;5.462;2023-06-22T04:43:28;11.07;;;10.13;;
75429;SDS011;64127;51.488;5.462;2023-06-22T04:46:01;11.03;;;10.13;;
75429;SDS011;64127;51.488;5.462;2023-06-22T04:48:34;10.90;;;10.00;;
75429;SDS011;64127;51.488;5.462;2023-06-22T04:51:06;11.30;;;10.30;;
75429;SDS011;64127;51.488;5.462;2023-06-22T04:53:39;12.23;;;11.13;;
75429;SDS011;64127;51.488;5.462;2023-06-22T04:56:12;10.43;;;9.60;;
75429;SDS011;64127;51.488;5.462;2023-06-22T04:58:44;11.93;;;10.83;;
75429;SDS011;64127;51.488;5.462;2023-06-22T05:01:16;11.50;;;10.40;;
75429;SDS011;64127;51.488;5.462;2023-06-22T05:03:48;12.10;;;10.77;;
75429;SDS011;64127;51.488;5.462;2023-06-22T05:06:21;11.67;;;10.57;;
75429;SDS011;64127;51.488;5.462;2023-06-22T05:08:57;12.83;;;11.40;;
75429;SDS011;64127;51.488;5.462;2023-06-22T05:11:29;11.90;;;10.77;;
75429;SDS011;64127;51.488;5.462;2023-06-22T05:14:01;11.40;;;10.37;;
75429;SDS011;64127;51.488;5.462;2023-06-22T05:16:33;11.53;;;10.33;;
75429;SDS011;64127;51.488;5.462;2023-06-22T05:19:06;11.70;;;10.67;;
75429;SDS011;64127;51.488;5.462;2023-06-22T05:21:39;12.00;;;10.90;;
75429;SDS011;64127;51.488;5.462;2023-06-22T05:24:11;11.83;;;10.63;;
75429;SDS011;64127;51.488;5.462;2023-06-22T05:26:43;11.87;;;10.77;;
75429;SDS011;64127;51.488;5.462;2023-06-22T05:29:14;12.27;;;10.93;;
75429;SDS011;64127;51.488;5.462;2023-06-22T05:31:46;11.63;;;10.53;;
75429;SDS011;64127;51.488;5.462;2023-06-22T05:34:19;12.00;;;10.80;;
75429;SDS011;64127;51.488;5.462;2023-06-22T05:36:51;11.87;;;10.87;;
75429;SDS011;64127;51.488;5.462;2023-06-22T05:39:23;12.13;;;11.03;;
75429;SDS011;64127;51.488;5.462;2023-06-22T05:41:55;12.30;;;11.10;;
75429;SDS011;64127;51.488;5.462;2023-06-22T05:44:27;12.70;;;11.40;;
75429;SDS011;64127;51.488;5.462;2023-06-22T05:46:59;11.87;;;10.77;;
75429;SDS011;64127;51.488;5.462;2023-06-22T05:49:31;12.43;;;11.13;;
75429;SDS011;64127;51.488;5.462;2023-06-22T05:52:04;13.20;;;11.80;;
75429;SDS011;64127;51.488;5.462;2023-06-22T05:54:36;12.07;;;10.97;;
75429;SDS011;64127;51.488;5.462;2023-06-22T05:57:10;12.50;;;11.50;;
75429;SDS011;64127;51.488;5.462;2023-06-22T05:59:42;12.27;;;11.17;;
75429;SDS011;64127;51.488;5.462;2023-06-22T06:02:14;12.43;;;11.23;;
75429;SDS011;64127;51.488;5.462;2023-06-22T06:04:46;13.63;;;12.23;;
75429;SDS011;64127;51.488;5.462;2023-06-22T06:07:18;12.93;;;11.60;;
75429;SDS011;64127;51.488;5.462;2023-06-22T06:09:50;13.13;;;12.03;;
75429;SDS011;64127;51.488;5.462;2023-06-22T06:12:22;13.07;;;11.97;;
75429;SDS011;64127;51.488;5.462;2023-06-22T06:14:54;14.40;;;13.00;;
75429;SDS011;64127;51.488;5.462;2023-06-22T06:17:27;14.30;;;12.90;;
75429;SDS011;64127;51.488;5.462;2023-06-22T06:20:00;13.40;;;12.20;;
75429;SDS011;64127;51.488;5.462;2023-06-22T06:22:34;14.37;;;12.87;;
75429;SDS011;64127;51.488;5.462;2023-06-22T06:25:06;14.67;;;13.27;;
75429;SDS011;64127;51.488;5.462;2023-06-22T06:27:39;14.90;;;13.50;;
75429;SDS011;64127;51.488;5.462;2023-06-22T06:30:11;15.83;;;13.70;;
75429;SDS011;64127;51.488;5.462;2023-06-22T06:32:46;14.67;;;13.27;;
75429;SDS011;64127;51.488;5.462;2023-06-22T06:35:19;14.90;;;13.63;;
75429;SDS011;64127;51.488;5.462;2023-06-22T06:37:52;14.70;;;13.27;;
75429;SDS011;64127;51.488;5.462;2023-06-22T06:40:24;15.20;;;13.60;;
75429;SDS011;64127;51.488;5.462;2023-06-22T06:42:57;15.00;;;13.57;;
75429;SDS011;64127;51.488;5.462;2023-06-22T06:45:29;15.57;;;14.17;;
75429;SDS011;64127;51.488;5.462;2023-06-22T06:48:02;15.77;;;14.27;;
75429;SDS011;64127;51.488;5.462;2023-06-22T06:50:34;15.20;;;13.70;;
75429;SDS011;64127;51.488;5.462;2023-06-22T06:53:06;15.10;;;13.67;;
75429;SDS011;64127;51.488;5.462;2023-06-22T06:55:38;14.20;;;12.70;;
75429;SDS011;64127;51.488;5.462;2023-06-22T06:58:10;16.03;;;14.53;;
75429;SDS011;64127;51.488;5.462;2023-06-22T07:00:44;14.50;;;13.20;;
75429;SDS011;64127;51.488;5.462;2023-06-22T07:03:16;15.63;;;14.13;;
75429;SDS011;64127;51.488;5.462;2023-06-22T07:05:48;15.30;;;14.00;;
75429;SDS011;64127;51.488;5.462;2023-06-22T07:08:20;15.07;;;13.60;;
75429;SDS011;64127;51.488;5.462;2023-06-22T07:10:52;14.93;;;13.57;;
75429;SDS011;64127;51.488;5.462;2023-06-22T07:13:24;15.40;;;14.00;;
75429;SDS011;64127;51.488;5.462;2023-06-22T07:15:56;15.33;;;13.83;;
75429;SDS011;64127;51.488;5.462;2023-06-22T07:18:28;16.33;;;14.70;;
75429;SDS011;64127;51.488;5.462;2023-06-22T07:21:01;16.50;;;14.90;;
75429;SDS011;64127;51.488;5.462;2023-06-22T07:23:37;15.70;;;14.03;;
75429;SDS011;64127;51.488;5.462;2023-06-22T07:26:09;15.33;;;14.03;;
75429;SDS011;64127;51.488;5.462;2023-06-22T07:28:43;16.10;;;14.47;;
75429;SDS011;64127;51.488;5.462;2023-06-22T07:31:15;15.53;;;14.13;;
75429;SDS011;64127;51.488;5.462;2023-06-22T07:33:47;16.03;;;14.53;;
75429;SDS011;64127;51.488;5.462;2023-06-22T07:36:19;15.53;;;14.03;;
75429;SDS011;64127;51.488;5.462;2023-06-22T07:38:51;16.57;;;15.10;;
75429;SDS011;64127;51.488;5.462;2023-06-22T07:41:23;16.30;;;14.63;;
75429;SDS011;64127;51.488;5.462;2023-06-22T07:43:55;16.30;;;14.80;;
75429;SDS011;64127;51.488;5.462;2023-06-22T07:46:28;16.33;;;14.83;;
75429;SDS011;64127;51.488;5.462;2023-06-22T07:49:01;16.67;;;15.17;;
75429;SDS011;64127;51.488;5.462;2023-06-22T07:51:34;16.83;;;15.13;;
75429;SDS011;64127;51.488;5.462;2023-06-22T07:54:06;17.37;;;15.90;;
75429;SDS011;64127;51.488;5.462;2023-06-22T07:56:38;21.27;;;15.57;;
75429;SDS011;64127;51.488;5.462;2023-06-22T07:59:10;16.57;;;15.07;;
75429;SDS011;64127;51.488;5.462;2023-06-22T08:01:42;17.43;;;15.83;;
75429;SDS011;64127;51.488;5.462;2023-06-22T08:04:14;16.77;;;15.20;;
75429;SDS011;64127;51.488;5.462;2023-06-22T08:06:46;17.23;;;15.53;;
75429;SDS011;64127;51.488;5.462;2023-06-22T08:09:20;17.50;;;15.80;;
75429;SDS011;64127;51.488;5.462;2023-06-22T08:11:52;16.37;;;14.87;;
75429;SDS011;64127;51.488;5.462;2023-06-22T08:14:26;16.23;;;14.87;;
75429;SDS011;64127;51.488;5.462;2023-06-22T08:16:59;16.80;;;15.30;;
75429;SDS011;64127;51.488;5.462;2023-06-22T08:19:31;16.70;;;14.93;;
75429;SDS011;64127;51.488;5.462;2023-06-22T08:22:03;17.07;;;15.50;;
75429;SDS011;64127;51.488;5.462;2023-06-22T08:24:35;16.77;;;15.30;;
75429;SDS011;64127;51.488;5.462;2023-06-22T08:27:07;16.57;;;15.03;;
75429;SDS011;64127;51.488;5.462;2023-06-22T08:29:43;17.33;;;15.73;;
75429;SDS011;64127;51.488;5.462;2023-06-22T08:32:16;17.03;;;15.37;;
75429;SDS011;64127;51.488;5.462;2023-06-22T08:34:49;16.67;;;15.17;;
75429;SDS011;64127;51.488;5.462;2023-06-22T08:37:21;15.93;;;14.53;;
75429;SDS011;64127;51.488;5.462;2023-06-22T08:39:56;15.87;;;14.57;;
75429;SDS011;64127;51.488;5.462;2023-06-22T08:42:31;16.83;;;15.23;;
75429;SDS011;64127;51.488;5.462;2023-06-22T08:45:03;16.77;;;15.27;;
75429;SDS011;64127;51.488;5.462;2023-06-22T08:47:36;16.07;;;14.57;;
75429;SDS011;64127;51.488;5.462;2023-06-22T08:50:08;16.07;;;14.60;;
75429;SDS011;64127;51.488;5.462;2023-06-22T08:52:42;16.27;;;14.87;;
75429;SDS011;64127;51.488;5.462;2023-06-22T08:55:14;15.27;;;13.87;;
75429;SDS011;64127;51.488;5.462;2023-06-22T08:57:46;14.43;;;13.13;;
75429;SDS011;64127;51.488;5.462;2023-06-22T09:00:19;15.13;;;13.73;;
75429;SDS011;64127;51.488;5.462;2023-06-22T09:02:51;14.73;;;13.43;;
75429;SDS011;64127;51.488;5.462;2023-06-22T09:05:24;14.47;;;13.17;;
75429;SDS011;64127;51.488;5.462;2023-06-22T09:07:59;14.70;;;13.33;;
75429;SDS011;64127;51.488;5.462;2023-06-22T09:10:31;13.10;;;11.90;;
75429;SDS011;64127;51.488;5.462;2023-06-22T09:13:04;13.20;;;11.80;;
75429;SDS011;64127;51.488;5.462;2023-06-22T09:15:36;12.87;;;11.67;;
75429;SDS011;64127;51.488;5.462;2023-06-22T09:18:10;13.57;;;12.30;;
75429;SDS011;64127;51.488;5.462;2023-06-22T09:20:43;12.43;;;11.30;;
75429;SDS011;64127;51.488;5.462;2023-06-22T09:23:16;11.93;;;10.83;;
75429;SDS011;64127;51.488;5.462;2023-06-22T09:25:48;11.77;;;10.63;;
75429;SDS011;64127;51.488;5.462;2023-06-22T09:28:20;12.50;;;11.27;;
75429;SDS011;64127;51.488;5.462;2023-06-22T09:30:52;11.57;;;10.53;;
75429;SDS011;64127;51.488;5.462;2023-06-22T09:33:29;11.23;;;10.13;;
75429;SDS011;64127;51.488;5.462;2023-06-22T09:36:01;11.83;;;10.80;;
75429;SDS011;64127;51.488;5.462;2023-06-22T09:38:39;12.07;;;10.87;;
75429;SDS011;64127;51.488;5.462;2023-06-22T09:41:11;12.27;;;11.07;;
75429;SDS011;64127;51.488;5.462;2023-06-22T09:43:43;12.10;;;10.93;;
75429;SDS011;64127;51.488;5.462;2023-06-22T09:46:16;12.30;;;11.20;;
75429;SDS011;64127;51.488;5.462;2023-06-22T09:48:48;11.30;;;10.20;;
75429;SDS011;64127;51.488;5.462;2023-06-22T09:51:20;11.57;;;10.37;;
75429;SDS011;64127;51.488;5.462;2023-06-22T09:53:53;11.33;;;10.33;;
75429;SDS011;64127;51.488;5.462;2023-06-22T09:56:25;11.10;;;10.10;;
75429;SDS011;64127;51.488;5.462;2023-06-22T09:59:00;11.43;;;10.23;;
75429;SDS011;64127;51.488;5.462;2023-06-22T10:01:48;11.77;;;10.57;;
75429;SDS011;64127;51.488;5.462;2023-06-22T10:04:20;11.80;;;10.60;;
75429;SDS011;64127;51.488;5.462;2023-06-22T10:06:52;12.00;;;10.90;;
75429;SDS011;64127;51.488;5.462;2023-06-22T10:09:24;12.50;;;9.97;;
75429;SDS011;64127;51.488;5.462;2023-06-22T10:11:56;11.67;;;10.20;;
75429;SDS011;64127;51.488;5.462;2023-06-22T10:14:28;11.33;;;10.17;;
75429;SDS011;64127;51.488;5.462;2023-06-22T10:17:02;11.17;;;10.20;;
75429;SDS011;64127;51.488;5.462;2023-06-22T10:19:34;11.20;;;10.20;;
75429;SDS011;64127;51.488;5.462;2023-06-22T10:22:08;10.57;;;9.60;;
75429;SDS011;64127;51.488;5.462;2023-06-22T10:24:40;11.03;;;9.97;;
75429;SDS011;64127;51.488;5.462;2023-06-22T10:27:15;10.83;;;9.70;;
75429;SDS011;64127;51.488;5.462;2023-06-22T10:29:47;10.80;;;9.80;;
75429;SDS011;64127;51.488;5.462;2023-06-22T10:32:19;10.87;;;9.87;;
75429;SDS011;64127;51.488;5.462;2023-06-22T10:34:52;10.37;;;9.27;;
75429;SDS011;64127;51.488;5.462;2023-06-22T10:37:24;10.67;;;9.60;;
75429;SDS011;64127;51.488;5.462;2023-06-22T10:39:56;10.50;;;9.47;;
75429;SDS011;64127;51.488;5.462;2023-06-22T10:42:28;13.63;;;9.43;;
75429;SDS011;64127;51.488;5.462;2023-06-22T10:45:00;10.63;;;9.63;;
75429;SDS011;64127;51.488;5.462;2023-06-22T10:47:32;10.20;;;9.20;;
75429;SDS011;64127;51.488;5.462;2023-06-22T10:50:04;11.23;;;10.17;;
75429;SDS011;64127;51.488;5.462;2023-06-22T10:52:37;11.30;;;10.27;;
75429;SDS011;64127;51.488;5.462;2023-06-22T10:55:09;12.80;;;11.43;;
75429;SDS011;64127;51.488;5.462;2023-06-22T10:57:42;12.80;;;11.60;;
75429;SDS011;64127;51.488;5.462;2023-06-22T11:00:15;13.23;;;12.00;;
75429;SDS011;64127;51.488;5.462;2023-06-22T11:02:48;13.30;;;12.17;;
75429;SDS011;64127;51.488;5.462;2023-06-22T11:05:20;13.53;;;12.33;;
75429;SDS011;64127;51.488;5.462;2023-06-22T11:07:52;14.57;;;13.10;;
75429;SDS011;64127;51.488;5.462;2023-06-22T11:10:24;15.17;;;13.87;;
75429;SDS011;64127;51.488;5.462;2023-06-22T11:12:57;14.57;;;13.07;;
75429;SDS011;64127;51.488;5.462;2023-06-22T11:15:29;14.40;;;13.17;;
75429;SDS011;64127;51.488;5.462;2023-06-22T11:18:01;15.63;;;14.23;;
75429;SDS011;64127;51.488;5.462;2023-06-22T11:20:34;15.67;;;14.03;;
75429;SDS011;64127;51.488;5.462;2023-06-22T11:23:10;16.83;;;15.33;;
75429;SDS011;64127;51.488;5.462;2023-06-22T11:25:43;16.90;;;15.50;;
75429;SDS011;64127;51.488;5.462;2023-06-22T11:28:15;19.03;;;16.80;;
75429;SDS011;64127;51.488;5.462;2023-06-22T11:30:47;18.97;;;17.13;;
75429;SDS011;64127;51.488;5.462;2023-06-22T11:33:20;20.43;;;18.33;;
75429;SDS011;64127;51.488;5.462;2023-06-22T11:35:53;19.53;;;17.63;;
75429;SDS011;64127;51.488;5.462;2023-06-22T11:38:25;18.97;;;17.13;;
75429;SDS011;64127;51.488;5.462;2023-06-22T11:40:57;20.20;;;18.03;;
75429;SDS011;64127;51.488;5.462;2023-06-22T11:43:29;22.23;;;19.93;;
75429;SDS011;64127;51.488;5.462;2023-06-22T11:46:02;23.60;;;19.90;;
75429;SDS011;64127;51.488;5.462;2023-06-22T11:48:35;21.57;;;19.00;;
75429;SDS011;64127;51.488;5.462;2023-06-22T11:51:07;20.70;;;18.70;;
75429;SDS011;64127;51.488;5.462;2023-06-22T11:53:40;21.67;;;18.60;;
75429;SDS011;64127;51.488;5.462;2023-06-22T11:56:12;22.90;;;18.53;;
75429;SDS011;64127;51.488;5.462;2023-06-22T11:58:44;20.67;;;18.93;;
75429;SDS011;64127;51.488;5.462;2023-06-22T12:01:16;21.00;;;18.90;;
75429;SDS011;64127;51.488;5.462;2023-06-22T12:03:48;21.70;;;19.63;;
75429;SDS011;64127;51.488;5.462;2023-06-22T12:06:20;21.93;;;20.03;;
75429;SDS011;64127;51.488;5.462;2023-06-22T12:08:52;21.63;;;19.73;;
75429;SDS011;64127;51.488;5.462;2023-06-22T12:11:24;22.93;;;20.73;;
75429;SDS011;64127;51.488;5.462;2023-06-22T12:13:56;22.30;;;20.10;;
75429;SDS011;64127;51.488;5.462;2023-06-22T12:16:32;22.60;;;20.50;;
75429;SDS011;64127;51.488;5.462;2023-06-22T12:19:05;22.13;;;20.13;;
75429;SDS011;64127;51.488;5.462;2023-06-22T12:21:37;22.80;;;20.67;;
75429;SDS011;64127;51.488;5.462;2023-06-22T12:24:10;22.47;;;20.50;;
75429;SDS011;64127;51.488;5.462;2023-06-22T12:26:42;24.70;;;22.30;;
75429;SDS011;64127;51.488;5.462;2023-06-22T12:29:15;24.00;;;21.57;;
75429;SDS011;64127;51.488;5.462;2023-06-22T12:31:47;26.77;;;23.30;;
75429;SDS011;64127;51.488;5.462;2023-06-22T12:34:19;22.27;;;20.13;;
75429;SDS011;64127;51.488;5.462;2023-06-22T12:36:51;21.90;;;20.10;;
75429;SDS011;64127;51.488;5.462;2023-06-22T12:39:25;21.40;;;19.30;;
75429;SDS011;64127;51.488;5.462;2023-06-22T12:41:57;20.93;;;19.03;;
75429;SDS011;64127;51.488;5.462;2023-06-22T12:44:29;19.77;;;18.10;;
75429;SDS011;64127;51.488;5.462;2023-06-22T12:47:01;19.93;;;18.03;;
75429;SDS011;64127;51.488;5.462;2023-06-22T12:49:34;19.60;;;17.90;;
75429;SDS011;64127;51.488;5.462;2023-06-22T12:52:10;18.03;;;16.53;;
75429;SDS011;64127;51.488;5.462;2023-06-22T12:54:42;17.67;;;16.17;;
75429;SDS011;64127;51.488;5.462;2023-06-22T12:57:25;18.00;;;16.40;;
75429;SDS011;64127;51.488;5.462;2023-06-22T12:59:57;16.90;;;15.50;;
75429;SDS011;64127;51.488;5.462;2023-06-22T13:02:31;17.27;;;15.77;;
75429;SDS011;64127;51.488;5.462;2023-06-22T13:05:03;17.17;;;15.83;;
75429;SDS011;64127;51.488;5.462;2023-06-22T13:07:36;17.17;;;15.67;;
75429;SDS011;64127;51.488;5.462;2023-06-22T13:10:09;16.63;;;15.23;;
75429;SDS011;64127;51.488;5.462;2023-06-22T13:12:41;16.73;;;15.33;;
75429;SDS011;64127;51.488;5.462;2023-06-22T13:15:13;16.03;;;14.73;;
75429;SDS011;64127;51.488;5.462;2023-06-22T13:17:45;16.83;;;15.43;;
75429;SDS011;64127;51.488;5.462;2023-06-22T13:20:17;17.47;;;15.87;;
75429;SDS011;64127;51.488;5.462;2023-06-22T13:22:49;17.10;;;15.60;;
75429;SDS011;64127;51.488;5.462;2023-06-22T13:25:21;16.80;;;15.20;;
75429;SDS011;64127;51.488;5.462;2023-06-22T13:27:58;16.60;;;15.00;;
75429;SDS011;64127;51.488;5.462;2023-06-22T13:30:30;15.73;;;14.53;;
75429;SDS011;64127;51.488;5.462;2023-06-22T13:33:03;15.93;;;14.37;;
75429;SDS011;64127;51.488;5.462;2023-06-22T13:35:35;16.47;;;14.97;;
75429;SDS011;64127;51.488;5.462;2023-06-22T13:38:07;18.30;;;16.60;;
75429;SDS011;64127;51.488;5.462;2023-06-22T13:40:40;16.50;;;15.20;;
75429;SDS011;64127;51.488;5.462;2023-06-22T13:43:12;16.03;;;14.63;;
75429;SDS011;64127;51.488;5.462;2023-06-22T13:45:44;15.90;;;14.50;;
75429;SDS011;64127;51.488;5.462;2023-06-22T13:48:17;14.77;;;13.50;;
75429;SDS011;64127;51.488;5.462;2023-06-22T13:50:49;14.67;;;13.40;;
75429;SDS011;64127;51.488;5.462;2023-06-22T13:53:20;14.93;;;13.73;;
75429;SDS011;64127;51.488;5.462;2023-06-22T13:55:52;14.93;;;13.63;;
75429;SDS011;64127;51.488;5.462;2023-06-22T13:58:24;17.47;;;11.73;;
75429;SDS011;64127;51.488;5.462;2023-06-22T14:00:56;14.10;;;12.87;;
75429;SDS011;64127;51.488;5.462;2023-06-22T14:03:28;14.17;;;12.97;;
75429;SDS011;64127;51.488;5.462;2023-06-22T14:06:00;14.73;;;13.43;;
75429;SDS011;64127;51.488;5.462;2023-06-22T14:08:32;14.30;;;13.10;;
75429;SDS011;64127;51.488;5.462;2023-06-22T14:11:12;15.60;;;14.30;;
75429;SDS011;64127;51.488;5.462;2023-06-22T14:13:45;15.80;;;14.50;;
75429;SDS011;64127;51.488;5.462;2023-06-22T14:16:17;15.10;;;13.60;;
75429;SDS011;64127;51.488;5.462;2023-06-22T14:18:49;15.57;;;14.27;;
75429;SDS011;64127;51.488;5.462;2023-06-22T14:21:21;15.67;;;14.27;;
75429;SDS011;64127;51.488;5.462;2023-06-22T14:23:53;15.50;;;14.30;;
75429;SDS011;64127;51.488;5.462;2023-06-22T14:26:25;15.73;;;14.43;;
75429;SDS011;64127;51.488;5.462;2023-06-22T14:28:57;16.60;;;14.97;;
75429;SDS011;64127;51.488;5.462;2023-06-22T14:31:29;16.33;;;14.87;;
75429;SDS011;64127;51.488;5.462;2023-06-22T14:34:01;15.73;;;14.40;;
75429;SDS011;64127;51.488;5.462;2023-06-22T14:36:34;16.47;;;15.07;;
75429;SDS011;64127;51.488;5.462;2023-06-22T14:39:06;15.70;;;14.30;;
75429;SDS011;64127;51.488;5.462;2023-06-22T14:41:38;15.93;;;14.63;;
75429;SDS011;64127;51.488;5.462;2023-06-22T14:44:10;17.40;;;15.93;;
75429;SDS011;64127;51.488;5.462;2023-06-22T14:46:42;17.83;;;16.33;;
75429;SDS011;64127;51.488;5.462;2023-06-22T14:49:14;17.23;;;15.67;;
75429;SDS011;64127;51.488;5.462;2023-06-22T14:51:46;18.27;;;16.80;;
75429;SDS011;64127;51.488;5.462;2023-06-22T14:54:19;17.93;;;16.43;;
75429;SDS011;64127;51.488;5.462;2023-06-22T14:56:51;17.73;;;16.07;;
75429;SDS011;64127;51.488;5.462;2023-06-22T14:59:23;16.97;;;15.50;;
75429;SDS011;64127;51.488;5.462;2023-06-22T15:01:55;18.70;;;16.97;;
75429;SDS011;64127;51.488;5.462;2023-06-22T15:04:27;17.33;;;15.90;;
75429;SDS011;64127;51.488;5.462;2023-06-22T15:07:03;17.90;;;16.30;;
75429;SDS011;64127;51.488;5.462;2023-06-22T15:09:35;18.33;;;16.67;;